createdAt,value
2023-02-16T00:00:45.436Z,28.67
2023-02-16T00:03:18.030Z,31.80
2023-02-16T00:05:45.144Z,31.40
2023-02-16T00:08:12.165Z,29.77
2023-02-16T00:10:39.713Z,29.58
2023-02-16T00:13:44.969Z,31.23
2023-02-16T00:16:19.457Z,28.90
2023-02-16T00:18:46.959Z,29.83
2023-02-16T00:21:14.542Z,29.45
2023-02-16T00:23:41.850Z,28.30
2023-02-16T00:26:17.031Z,29.00
2023-02-16T00:28:44.288Z,30.45
2023-02-16T00:31:18.441Z,29.17
2023-02-16T00:33:45.632Z,30.15
2023-02-16T00:36:12.740Z,28.55
2023-02-16T00:38:39.829Z,28.98
2023-02-16T00:41:27.241Z,27.48
2023-02-16T00:43:55.106Z,26.50
2023-02-16T00:46:22.407Z,28.10
2023-02-16T00:48:49.514Z,30.52
2023-02-16T00:51:25.520Z,28.15
2023-02-16T00:53:53.321Z,27.25
2023-02-16T00:56:21.518Z,28.25
2023-02-16T00:58:50.264Z,28.75
2023-02-16T01:01:18.335Z,29.00
2023-02-16T01:03:45.521Z,27.23
2023-02-16T01:06:31.414Z,28.33
2023-02-16T01:09:30.756Z,28.52
2023-02-16T01:11:58.127Z,28.67
2023-02-16T01:14:25.692Z,29.08
2023-02-16T01:16:52.768Z,27.15
2023-02-16T01:19:19.787Z,29.73
2023-02-16T01:21:46.782Z,27.58
2023-02-16T01:24:13.858Z,27.95
2023-02-16T01:26:42.635Z,27.77
2023-02-16T01:29:14.795Z,27.70
2023-02-16T01:31:41.963Z,29.77
2023-02-16T01:34:09.141Z,30.15
2023-02-16T01:36:43.722Z,28.95
2023-02-16T01:39:15.510Z,28.92
2023-02-16T01:41:42.506Z,29.40
2023-02-16T01:44:23.906Z,29.65
2023-02-16T01:46:53.730Z,28.20
2023-02-16T01:49:21.476Z,29.83
2023-02-16T01:51:48.465Z,29.35
2023-02-16T01:54:32.209Z,28.13
2023-02-16T01:57:06.975Z,28.80
2023-02-16T01:59:41.734Z,31.05
2023-02-16T02:02:28.176Z,29.40
2023-02-16T02:05:16.869Z,29.25
2023-02-16T02:07:49.755Z,28.75
2023-02-16T02:10:26.635Z,30.02
2023-02-16T02:12:56.740Z,29.38
2023-02-16T02:15:25.343Z,29.67
2023-02-16T02:17:52.506Z,29.02
2023-02-16T02:21:01.040Z,29.13
2023-02-16T02:23:43.862Z,29.83
2023-02-16T02:26:34.153Z,28.98
2023-02-16T02:29:01.159Z,29.35
2023-02-16T02:31:37.351Z,29.23
2023-02-16T02:34:18.529Z,28.55
2023-02-16T02:36:57.415Z,29.85
2023-02-16T02:39:33.002Z,31.42
2023-02-16T02:42:11.605Z,29.95
2023-02-16T02:44:42.635Z,28.35
2023-02-16T02:47:09.770Z,28.25
2023-02-16T02:49:36.972Z,29.33
2023-02-16T02:52:04.365Z,29.25
2023-02-16T02:54:55.400Z,28.70
2023-02-16T02:57:44.287Z,29.60
2023-02-16T03:00:32.765Z,28.92
2023-02-16T03:03:02.155Z,29.20
2023-02-16T03:05:31.043Z,28.95
2023-02-16T03:08:06.518Z,28.17
2023-02-16T03:10:54.788Z,26.75
2023-02-16T03:13:24.072Z,25.38
2023-02-16T03:15:55.753Z,29.35
2023-02-16T03:18:43.601Z,26.48
2023-02-16T03:21:30.955Z,27.83
2023-02-16T03:24:17.282Z,27.20
2023-02-16T03:27:03.149Z,26.88
2023-02-16T03:29:30.397Z,25.60
2023-02-16T03:31:57.868Z,26.67
2023-02-16T03:34:25.141Z,27.10
2023-02-16T03:36:58.392Z,27.77
2023-02-16T03:39:26.499Z,26.58
2023-02-16T03:41:54.731Z,27.02
2023-02-16T03:44:21.888Z,28.95
2023-02-16T03:46:49.549Z,27.90
2023-02-16T03:49:17.122Z,25.58
2023-02-16T03:51:45.107Z,27.90
2023-02-16T03:54:12.612Z,26.40
2023-02-16T03:56:39.656Z,27.30
2023-02-16T03:59:06.742Z,26.48
2023-02-16T04:01:33.771Z,26.10
2023-02-16T04:04:00.850Z,24.05
2023-02-16T04:06:27.954Z,26.90
2023-02-16T04:08:55.090Z,26.35
2023-02-16T04:11:40.863Z,25.48
2023-02-16T04:14:07.927Z,26.27
2023-02-16T04:16:34.922Z,24.75
2023-02-16T04:19:02.013Z,26.70
2023-02-16T04:21:29.076Z,24.52
2023-02-16T04:23:56.087Z,26.83
2023-02-16T04:26:23.123Z,27.08
2023-02-16T04:28:50.088Z,27.48
2023-02-16T04:31:17.204Z,25.77
2023-02-16T04:33:44.304Z,27.30
2023-02-16T04:36:11.304Z,24.95
2023-02-16T04:38:38.392Z,25.73
2023-02-16T04:41:05.737Z,24.58
2023-02-16T04:43:33.424Z,24.67
2023-02-16T04:46:00.870Z,23.27
2023-02-16T04:48:27.937Z,25.98
2023-02-16T04:50:55.051Z,24.05
2023-02-16T04:53:22.158Z,24.33
2023-02-16T04:55:50.055Z,25.55
2023-02-16T04:58:17.570Z,24.33
2023-02-16T05:00:44.664Z,26.73
2023-02-16T05:03:11.781Z,23.23
2023-02-16T05:05:38.817Z,23.27
2023-02-16T05:08:05.885Z,23.52
2023-02-16T05:10:32.924Z,23.58
2023-02-16T05:13:19.489Z,22.95
2023-02-16T05:15:46.684Z,22.80
2023-02-16T05:18:14.183Z,22.13
2023-02-16T05:20:59.789Z,23.77
2023-02-16T05:23:26.776Z,22.88
2023-02-16T05:25:53.823Z,20.70
2023-02-16T05:28:20.897Z,23.92
2023-02-16T05:30:48.042Z,24.55
2023-02-16T05:33:15.082Z,23.73
2023-02-16T05:35:42.117Z,25.27
2023-02-16T05:38:09.270Z,23.60
2023-02-16T05:40:36.372Z,23.02
2023-02-16T05:43:03.416Z,23.38
2023-02-16T05:45:30.636Z,23.10
2023-02-16T05:47:57.755Z,23.17
2023-02-16T05:50:24.749Z,23.73
2023-02-16T05:52:51.769Z,22.27
2023-02-16T05:55:18.881Z,22.00
2023-02-16T05:57:46.104Z,22.23
2023-02-16T06:00:13.391Z,20.80
2023-02-16T06:02:40.464Z,20.50
2023-02-16T06:05:07.775Z,20.73
2023-02-16T06:07:34.843Z,20.65
2023-02-16T06:10:01.891Z,21.38
2023-02-16T06:12:28.889Z,19.83
2023-02-16T06:14:55.944Z,19.67
2023-02-16T06:17:22.985Z,20.08
2023-02-16T06:19:50.069Z,19.42
2023-02-16T06:22:17.077Z,18.95
2023-02-16T06:24:44.391Z,19.27
2023-02-16T06:27:11.427Z,18.73
2023-02-16T06:29:38.467Z,18.88
2023-02-16T06:32:05.765Z,18.27
2023-02-16T06:34:32.979Z,15.80
2023-02-16T06:36:59.986Z,16.35
2023-02-16T06:39:26.999Z,18.08
2023-02-16T06:41:54.065Z,17.05
2023-02-16T06:44:21.170Z,15.80
2023-02-16T06:46:48.897Z,16.77
2023-02-16T06:49:20.956Z,14.10
2023-02-16T06:51:49.070Z,16.17
2023-02-16T06:54:16.205Z,15.90
2023-02-16T06:56:43.572Z,16.27
2023-02-16T06:59:11.817Z,17.45
2023-02-16T07:01:39.004Z,15.80
2023-02-16T07:04:06.132Z,16.63
2023-02-16T07:06:33.152Z,17.67
2023-02-16T07:09:00.222Z,16.48
2023-02-16T07:11:27.440Z,15.25
2023-02-16T07:13:54.485Z,15.10
2023-02-16T07:16:21.901Z,17.77
2023-02-16T07:18:49.097Z,20.33
2023-02-16T07:21:16.196Z,16.63
2023-02-16T07:23:43.259Z,16.38
2023-02-16T07:26:10.377Z,15.63
2023-02-16T07:28:37.470Z,15.75
2023-02-16T07:31:08.665Z,15.73
2023-02-16T07:33:35.903Z,16.20
2023-02-16T07:36:02.979Z,15.45
2023-02-16T07:38:30.777Z,16.58
2023-02-16T07:40:58.472Z,16.80
2023-02-16T07:43:26.157Z,15.75
2023-02-16T07:45:53.491Z,15.98
2023-02-16T07:48:20.762Z,14.73
2023-02-16T07:50:47.790Z,15.77
2023-02-16T07:53:14.910Z,14.30
2023-02-16T07:55:45.892Z,14.25
2023-02-16T07:58:27.046Z,12.90
2023-02-16T08:01:07.940Z,13.88
2023-02-16T08:03:35.278Z,14.23
2023-02-16T08:06:02.646Z,13.63
2023-02-16T08:08:29.691Z,13.63
2023-02-16T08:10:56.747Z,13.90
2023-02-16T08:13:23.990Z,13.63
2023-02-16T08:15:51.010Z,13.82
2023-02-16T08:18:18.166Z,13.32
2023-02-16T08:21:02.786Z,15.15
2023-02-16T08:23:31.308Z,15.07
2023-02-16T08:25:58.946Z,13.48
2023-02-16T08:28:28.611Z,14.00
2023-02-16T08:30:56.135Z,13.95
2023-02-16T08:33:23.314Z,13.02
2023-02-16T08:35:50.377Z,13.30
2023-02-16T08:38:17.409Z,12.85
2023-02-16T08:40:48.613Z,13.48
2023-02-16T08:43:15.729Z,14.35
2023-02-16T08:45:47.572Z,13.65
2023-02-16T08:48:14.943Z,14.18
2023-02-16T08:50:53.452Z,14.00
2023-02-16T08:53:25.126Z,13.60
2023-02-16T08:55:52.946Z,13.35
2023-02-16T08:58:20.021Z,13.90
2023-02-16T09:00:47.302Z,12.43
2023-02-16T09:03:14.372Z,13.30
2023-02-16T09:05:41.986Z,13.63
2023-02-16T09:08:09.021Z,12.10
2023-02-16T09:10:36.058Z,12.02
2023-02-16T09:13:03.336Z,11.80
2023-02-16T09:15:30.362Z,11.48
2023-02-16T09:17:57.848Z,10.30
2023-02-16T09:20:24.938Z,10.02
2023-02-16T09:22:53.110Z,9.45
2023-02-16T09:25:20.420Z,9.18
2023-02-16T09:27:47.431Z,8.70
2023-02-16T09:30:14.691Z,9.27
2023-02-16T09:32:42.485Z,8.38
2023-02-16T09:35:09.533Z,9.15
2023-02-16T09:37:36.600Z,8.68
2023-02-16T09:40:05.040Z,9.27
2023-02-16T09:42:45.292Z,8.38
2023-02-16T09:45:14.122Z,8.88
2023-02-16T09:47:42.889Z,9.45
2023-02-16T09:50:13.223Z,10.38
2023-02-16T09:52:41.786Z,10.05
2023-02-16T09:55:12.270Z,10.10
2023-02-16T09:57:55.651Z,10.07
2023-02-16T10:00:28.820Z,9.63
2023-02-16T10:03:14.416Z,10.55
2023-02-16T10:06:01.028Z,11.15
2023-02-16T10:08:34.103Z,10.70
2023-02-16T10:11:38.620Z,12.50
2023-02-16T10:14:24.523Z,9.82
2023-02-16T10:17:12.388Z,10.63
2023-02-16T10:19:58.318Z,10.38
2023-02-16T10:22:33.990Z,10.40
2023-02-16T10:25:12.932Z,10.18
2023-02-16T10:27:48.997Z,10.85
2023-02-16T10:30:16.542Z,10.25
2023-02-16T10:33:03.932Z,9.95
2023-02-16T10:35:47.732Z,10.07
2023-02-16T10:38:18.186Z,10.55
2023-02-16T10:40:56.305Z,9.60
2023-02-16T10:43:23.812Z,9.57
2023-02-16T10:45:54.900Z,9.80
2023-02-16T10:48:23.045Z,9.85
2023-02-16T10:50:50.196Z,10.35
2023-02-16T10:53:20.446Z,8.93
2023-02-16T10:55:47.521Z,9.55
2023-02-16T10:58:17.711Z,9.65
2023-02-16T11:00:53.990Z,8.95
2023-02-16T11:03:24.220Z,11.38
2023-02-16T11:05:53.304Z,9.23
2023-02-16T11:08:20.495Z,9.27
2023-02-16T11:10:51.780Z,9.13
2023-02-16T11:13:26.932Z,9.30
2023-02-16T11:15:55.907Z,9.90
2023-02-16T11:18:28.763Z,9.73
2023-02-16T11:20:56.218Z,9.65
2023-02-16T11:23:26.702Z,8.50
2023-02-16T11:25:58.328Z,9.32
2023-02-16T11:28:32.362Z,8.80
2023-02-16T11:31:19.738Z,9.90
2023-02-16T11:34:05.815Z,9.02
2023-02-16T11:36:39.341Z,8.45
2023-02-16T11:39:15.362Z,7.95
2023-02-16T11:41:51.783Z,8.77
2023-02-16T11:44:28.130Z,8.45
2023-02-16T11:46:57.178Z,8.82
2023-02-16T11:49:34.938Z,8.02
2023-02-16T11:52:02.212Z,6.90
2023-02-16T11:54:29.222Z,8.00
2023-02-16T11:57:03.820Z,8.40
2023-02-16T11:59:35.373Z,6.65
2023-02-16T12:02:02.463Z,7.07
2023-02-16T12:04:43.445Z,6.78
2023-02-16T12:07:23.036Z,6.18
2023-02-16T12:09:50.706Z,7.25
2023-02-16T12:12:37.994Z,6.43
2023-02-16T12:15:23.573Z,6.20
2023-02-16T12:17:57.007Z,6.70
2023-02-16T12:20:36.446Z,7.05
2023-02-16T12:23:17.145Z,6.45
2023-02-16T12:26:03.235Z,6.57
2023-02-16T12:28:43.016Z,6.28
2023-02-16T12:31:28.595Z,6.20
2023-02-16T12:34:10.779Z,6.97
2023-02-16T12:36:56.531Z,6.50
2023-02-16T12:39:49.014Z,5.93
2023-02-16T12:42:16.047Z,6.72
2023-02-16T12:44:46.737Z,7.45
2023-02-16T12:47:18.122Z,6.60
2023-02-16T12:49:52.585Z,7.00
2023-02-16T12:52:22.556Z,5.95
2023-02-16T12:54:52.278Z,6.93
2023-02-16T12:57:21.224Z,6.85
2023-02-16T12:59:50.513Z,7.35
2023-02-16T13:02:17.495Z,6.13
2023-02-16T13:04:46.497Z,8.27
2023-02-16T13:07:18.148Z,6.95
2023-02-16T13:09:46.110Z,6.55
2023-02-16T13:12:16.566Z,6.55
2023-02-16T13:14:46.055Z,6.68
2023-02-16T13:17:18.523Z,6.57
2023-02-16T13:19:47.031Z,7.65
2023-02-16T13:22:29.165Z,7.63
2023-02-16T13:24:59.059Z,7.13
2023-02-16T13:27:42.683Z,7.75
2023-02-16T13:30:15.824Z,7.80
2023-02-16T13:32:54.988Z,6.43
2023-02-16T13:35:22.690Z,7.35
2023-02-16T13:37:49.671Z,7.82
2023-02-16T13:40:22.550Z,6.90
2023-02-16T13:42:52.405Z,6.55
2023-02-16T13:45:21.757Z,6.30
2023-02-16T13:47:49.189Z,6.32
2023-02-16T13:50:24.837Z,7.20
2023-02-16T13:52:53.202Z,7.20
2023-02-16T13:55:27.055Z,6.63
2023-02-16T14:00:28.956Z,6.70
2023-02-16T14:02:58.610Z,6.80
2023-02-16T14:05:28.670Z,5.65
2023-02-16T14:08:10.809Z,6.28
2023-02-16T14:10:55.965Z,6.53
2023-02-16T14:13:33.744Z,6.15
2023-02-16T14:16:06.337Z,5.80
2023-02-16T14:18:38.864Z,6.70
2023-02-16T14:21:07.750Z,6.75
2023-02-16T14:23:35.957Z,6.20
2023-02-16T14:26:04.752Z,6.10
2023-02-16T14:28:31.973Z,5.85
2023-02-16T14:31:00.486Z,6.15
2023-02-16T14:33:46.276Z,5.85
2023-02-16T14:36:21.115Z,5.35
2023-02-16T14:38:49.525Z,5.95
2023-02-16T14:41:33.475Z,5.45
2023-02-16T14:44:06.472Z,5.80
2023-02-16T14:46:52.076Z,5.65
2023-02-16T14:49:35.680Z,5.78
2023-02-16T14:52:21.561Z,4.00
2023-02-16T14:55:07.312Z,5.72
2023-02-16T14:57:57.380Z,5.07
2023-02-16T15:00:35.739Z,5.50
2023-02-16T15:03:05.636Z,5.10
2023-02-16T15:05:37.733Z,6.00
2023-02-16T15:08:18.231Z,5.53
2023-02-16T15:10:46.443Z,5.57
2023-02-16T15:13:24.376Z,5.80
2023-02-16T15:15:55.879Z,5.35
2023-02-16T15:18:24.388Z,6.53
2023-02-16T15:20:53.137Z,5.75
2023-02-16T15:23:24.882Z,5.38
2023-02-16T15:25:56.404Z,6.18
2023-02-16T15:28:29.307Z,5.90
2023-02-16T15:30:58.385Z,6.25
2023-02-16T15:33:25.491Z,5.63
2023-02-16T15:35:53.839Z,5.88
2023-02-16T15:38:23.594Z,4.65
2023-02-16T15:40:54.738Z,5.63
2023-02-16T15:43:22.266Z,5.43
2023-02-16T15:45:52.529Z,5.63
2023-02-16T15:48:30.529Z,5.10
2023-02-16T15:51:08.826Z,5.20
2023-02-16T15:53:44.257Z,5.13
2023-02-16T15:56:43.525Z,5.88
2023-02-16T15:59:16.462Z,5.63
2023-02-16T16:01:43.587Z,5.10
2023-02-16T16:04:19.693Z,5.53
2023-02-16T16:06:48.172Z,5.20
2023-02-16T16:09:22.790Z,5.07
2023-02-16T16:11:51.753Z,5.63
2023-02-16T16:14:18.881Z,5.20
2023-02-16T16:16:46.349Z,5.50
2023-02-16T16:19:20.976Z,5.43
2023-02-16T16:21:51.278Z,5.55
2023-02-16T16:24:32.499Z,4.78
2023-02-16T16:27:00.369Z,5.25
2023-02-16T16:29:41.318Z,5.13
2023-02-16T16:32:28.802Z,6.30
2023-02-16T16:34:56.041Z,6.55
2023-02-16T16:37:26.322Z,6.00
2023-02-16T16:40:01.406Z,6.03
2023-02-16T16:42:28.720Z,6.13
2023-02-16T16:44:57.479Z,6.53
2023-02-16T16:47:29.081Z,6.68
2023-02-16T16:50:01.003Z,6.13
2023-02-16T16:52:31.175Z,7.90
2023-02-16T16:54:58.212Z,8.07
2023-02-16T16:57:25.251Z,8.02
2023-02-16T16:59:52.307Z,8.45
2023-02-16T17:02:19.323Z,8.02
2023-02-16T17:04:46.399Z,7.70
2023-02-16T17:07:13.416Z,7.75
2023-02-16T17:09:40.532Z,8.95
2023-02-16T17:12:07.610Z,8.90
2023-02-16T17:14:34.653Z,7.57
2023-02-16T17:17:01.748Z,8.10
2023-02-16T17:19:29.450Z,8.23
2023-02-16T17:21:56.464Z,7.70
2023-02-16T17:24:23.543Z,7.28
2023-02-16T17:26:50.669Z,7.57
2023-02-16T17:29:17.798Z,8.10
2023-02-16T17:31:44.962Z,8.40
2023-02-16T17:34:12.051Z,7.38
2023-02-16T17:36:39.160Z,7.55
2023-02-16T17:39:07.194Z,8.48
2023-02-16T17:41:34.256Z,8.48
2023-02-16T17:44:01.327Z,8.43
2023-02-16T17:46:28.983Z,8.10
2023-02-16T17:48:56.097Z,8.73
2023-02-16T17:51:24.566Z,8.65
2023-02-16T17:53:52.004Z,7.90
2023-02-16T17:56:20.870Z,7.32
2023-02-16T17:58:47.924Z,7.00
2023-02-16T18:01:15.968Z,6.55
2023-02-16T18:03:43.112Z,7.15
2023-02-16T18:06:13.502Z,5.97
2023-02-16T18:08:40.506Z,6.07
2023-02-16T18:11:07.554Z,7.05
2023-02-16T18:13:34.632Z,6.40
2023-02-16T18:16:03.800Z,6.82
2023-02-16T18:18:32.842Z,7.20
2023-02-16T18:20:59.937Z,7.88
2023-02-16T18:23:26.976Z,7.53
2023-02-16T18:25:54.082Z,7.75
2023-02-16T18:28:25.823Z,7.35
2023-02-16T18:30:52.918Z,7.50
2023-02-16T18:33:24.283Z,7.18
2023-02-16T18:35:52.399Z,7.57
2023-02-16T18:38:21.821Z,7.07
2023-02-16T18:40:49.033Z,8.02
2023-02-16T18:43:16.084Z,7.32
2023-02-16T18:45:43.085Z,7.57
2023-02-16T18:48:10.349Z,9.00
2023-02-16T18:50:37.363Z,9.57
2023-02-16T18:53:04.731Z,10.10
2023-02-16T18:55:35.686Z,9.73
2023-02-16T18:58:06.708Z,8.18
2023-02-16T19:00:34.858Z,8.27
2023-02-16T19:03:02.526Z,8.35
2023-02-16T19:05:29.741Z,8.07
2023-02-16T19:07:56.782Z,8.38
2023-02-16T19:10:25.097Z,8.98
2023-02-16T19:12:52.294Z,8.13
2023-02-16T19:15:19.465Z,8.75
2023-02-16T19:17:46.553Z,8.20
2023-02-16T19:20:17.926Z,7.40
2023-02-16T19:22:45.763Z,9.02
2023-02-16T19:25:12.829Z,8.45
2023-02-16T19:27:39.840Z,9.15
2023-02-16T19:30:07.155Z,8.38
2023-02-16T19:32:34.192Z,8.52
2023-02-16T19:35:01.270Z,8.48
2023-02-16T19:37:28.252Z,8.13
2023-02-16T19:39:55.388Z,8.52
2023-02-16T19:42:22.468Z,9.30
2023-02-16T19:44:49.507Z,7.53
2023-02-16T19:47:17.760Z,9.20
2023-02-16T19:49:45.518Z,7.63
2023-02-16T19:52:12.619Z,8.55
2023-02-16T19:54:39.894Z,8.80
2023-02-16T19:57:07.013Z,8.88
2023-02-16T19:59:34.138Z,7.30
2023-02-16T20:02:02.520Z,8.32
2023-02-16T20:04:29.543Z,8.25
2023-02-16T20:06:56.713Z,9.45
2023-02-16T20:09:23.856Z,8.48
2023-02-16T20:11:51.754Z,9.05
2023-02-16T20:14:18.925Z,10.10
2023-02-16T20:16:46.285Z,9.10
2023-02-16T20:19:13.339Z,8.38
2023-02-16T20:21:44.013Z,8.13
2023-02-16T20:24:11.525Z,8.77
2023-02-16T20:26:40.589Z,8.93
2023-02-16T20:29:08.256Z,7.90
2023-02-16T20:31:39.860Z,8.07
2023-02-16T20:34:07.322Z,8.25
2023-02-16T20:36:35.381Z,7.13
2023-02-16T20:39:02.681Z,8.93
2023-02-16T20:41:29.694Z,8.32
2023-02-16T20:43:56.754Z,9.07
2023-02-16T20:46:24.674Z,8.52
2023-02-16T20:48:51.864Z,8.52
2023-02-16T20:51:19.467Z,7.72
2023-02-16T20:53:46.943Z,8.63
2023-02-16T20:56:15.600Z,8.15
2023-02-16T20:58:44.135Z,8.15
2023-02-16T21:01:12.935Z,7.38
2023-02-16T21:03:40.207Z,7.72
2023-02-16T21:06:07.488Z,7.15
2023-02-16T21:08:34.870Z,7.57
2023-02-16T21:11:01.906Z,6.68
2023-02-16T21:13:28.995Z,6.75
2023-02-16T21:15:56.229Z,6.70
2023-02-16T21:18:23.378Z,7.35
2023-02-16T21:20:51.301Z,6.63
2023-02-16T21:23:18.826Z,7.07
2023-02-16T21:25:45.857Z,6.32
2023-02-16T21:28:13.122Z,7.18
2023-02-16T21:30:41.457Z,7.78
2023-02-16T21:33:08.481Z,6.75
2023-02-16T21:35:35.526Z,6.85
2023-02-16T21:38:02.600Z,7.07
2023-02-16T21:40:48.346Z,6.55
2023-02-16T21:43:15.412Z,7.03
2023-02-16T21:45:42.550Z,6.70
2023-02-16T21:48:29.677Z,7.20
2023-02-16T21:50:56.914Z,7.82
2023-02-16T21:53:23.982Z,7.55
2023-02-16T21:56:09.517Z,7.38
2023-02-16T21:58:36.565Z,11.45
2023-02-16T22:01:03.652Z,7.13
2023-02-16T22:03:30.886Z,7.00
2023-02-16T22:06:02.335Z,6.13
2023-02-16T22:08:29.777Z,6.43
2023-02-16T22:10:56.826Z,6.35
2023-02-16T22:13:23.860Z,6.72
2023-02-16T22:15:50.923Z,5.90
2023-02-16T22:18:17.924Z,6.38
2023-02-16T22:20:45.036Z,6.30
2023-02-16T22:23:12.342Z,6.75
2023-02-16T22:25:40.561Z,6.35
2023-02-16T22:28:07.618Z,6.20
2023-02-16T22:30:34.662Z,5.65
2023-02-16T22:33:01.701Z,6.22
2023-02-16T22:35:28.872Z,5.15
2023-02-16T22:37:56.066Z,6.50
2023-02-16T22:40:23.126Z,5.53
2023-02-16T22:42:50.126Z,7.15
2023-02-16T22:45:17.204Z,6.13
2023-02-16T22:47:44.217Z,6.22
2023-02-16T22:50:11.495Z,6.55
2023-02-16T22:52:38.559Z,6.20
2023-02-16T22:55:06.214Z,6.53
2023-02-16T22:57:37.215Z,6.43
2023-02-16T23:00:09.298Z,6.95
2023-02-16T23:02:37.644Z,6.03
2023-02-16T23:05:05.524Z,6.57
2023-02-16T23:07:33.289Z,6.93
2023-02-16T23:10:00.316Z,5.75
2023-02-16T23:12:27.653Z,6.18
2023-02-16T23:14:54.776Z,6.93
2023-02-16T23:17:21.759Z,7.35
2023-02-16T23:19:50.747Z,7.22
2023-02-16T23:22:17.910Z,6.82
2023-02-16T23:24:45.010Z,7.38
2023-02-16T23:27:12.087Z,6.95
2023-02-16T23:29:39.120Z,6.57
2023-02-16T23:32:06.519Z,7.00
2023-02-16T23:34:33.530Z,8.93
2023-02-16T23:37:00.552Z,6.63
2023-02-16T23:39:27.603Z,7.75
2023-02-16T23:41:54.900Z,7.72
2023-02-16T23:44:21.902Z,6.85
2023-02-16T23:46:48.956Z,7.28
2023-02-16T23:49:16.003Z,7.47
2023-02-16T23:51:43.762Z,6.72
2023-02-16T23:54:11.662Z,7.03
2023-02-16T23:56:40.436Z,6.35
2023-02-16T23:59:07.432Z,6.35
